createdAt,value
2022-11-28T00:01:24.691Z,9.73
2022-11-28T00:03:51.985Z,9.13
2022-11-28T00:06:19.277Z,8.75
2022-11-28T00:08:46.495Z,9.00
2022-11-28T00:11:15.957Z,7.40
2022-11-28T00:13:43.115Z,10.50
2022-11-28T00:16:15.420Z,10.15
2022-11-28T00:18:42.493Z,7.25
2022-11-28T00:21:12.297Z,11.77
2022-11-28T00:23:39.974Z,8.27
2022-11-28T00:26:11.874Z,8.63
2022-11-28T00:28:38.942Z,11.23
2022-11-28T00:31:06.116Z,6.13
2022-11-28T00:33:33.558Z,7.83
2022-11-28T00:36:02.921Z,10.30
2022-11-28T00:38:30.246Z,5.75
2022-11-28T00:41:09.863Z,8.48
2022-11-28T00:43:37.437Z,8.15
2022-11-28T00:46:04.523Z,6.43
2022-11-28T00:48:33.003Z,9.07
2022-11-28T00:51:11.215Z,7.22
2022-11-28T00:53:40.664Z,9.85
2022-11-28T00:56:08.290Z,9.80
2022-11-28T00:58:36.020Z,8.50
2022-11-28T01:01:18.249Z,8.30
2022-11-28T01:03:48.070Z,8.23
2022-11-28T01:06:22.600Z,8.27
2022-11-28T01:08:49.788Z,7.07
2022-11-28T01:11:16.757Z,8.60
2022-11-28T01:13:43.560Z,6.63
2022-11-28T01:16:10.954Z,9.30
2022-11-28T01:18:38.673Z,8.40
2022-11-28T01:21:07.727Z,11.85
2022-11-28T01:23:35.301Z,7.87
2022-11-28T01:26:03.737Z,8.88
2022-11-28T01:28:30.575Z,10.43
2022-11-28T01:30:57.376Z,7.47
2022-11-28T01:33:24.201Z,10.43
2022-11-28T01:35:55.948Z,7.43
2022-11-28T01:38:23.273Z,8.90
2022-11-28T01:40:50.836Z,8.50
2022-11-28T01:43:18.341Z,10.00
2022-11-28T01:45:45.696Z,6.72
2022-11-28T01:48:18.399Z,8.97
2022-11-28T01:50:50.108Z,8.30
2022-11-28T01:53:17.832Z,9.38
2022-11-28T01:55:54.652Z,7.10
2022-11-28T01:58:21.971Z,7.75
2022-11-28T02:00:49.249Z,5.50
2022-11-28T02:03:42.297Z,5.97
2022-11-28T02:06:10.498Z,5.60
2022-11-28T02:08:37.666Z,7.57
2022-11-28T02:11:29.789Z,7.25
2022-11-28T02:14:14.726Z,12.47
2022-11-28T02:16:59.487Z,7.15
2022-11-28T02:20:04.466Z,7.22
2022-11-28T02:22:36.485Z,9.20
2022-11-28T02:25:44.536Z,7.32
2022-11-28T02:28:17.397Z,6.57
2022-11-28T02:31:07.872Z,7.75
2022-11-28T02:33:43.696Z,5.47
2022-11-28T02:36:28.790Z,5.88
2022-11-28T02:39:27.760Z,7.65
2022-11-28T02:42:09.487Z,8.10
2022-11-28T02:45:15.739Z,7.57
2022-11-28T02:47:54.808Z,7.45
2022-11-28T02:50:53.283Z,6.50
2022-11-28T02:53:23.808Z,7.05
2022-11-28T02:55:52.606Z,7.87
2022-11-28T02:58:19.390Z,5.78
2022-11-28T03:00:50.663Z,6.00
2022-11-28T03:03:38.006Z,8.88
2022-11-28T03:06:21.533Z,4.97
2022-11-28T03:09:26.356Z,9.40
2022-11-28T03:12:02.243Z,5.15
2022-11-28T03:14:41.971Z,9.43
2022-11-28T03:17:18.159Z,8.70
2022-11-28T03:20:17.216Z,6.28
2022-11-28T03:22:55.895Z,5.43
2022-11-28T03:25:40.582Z,7.20
2022-11-28T03:28:49.736Z,8.43
2022-11-28T03:31:22.315Z,6.80
2022-11-28T03:33:54.794Z,5.60
2022-11-28T03:36:29.549Z,7.43
2022-11-28T03:39:11.269Z,9.52
2022-11-28T03:41:46.800Z,9.10
2022-11-28T03:44:27.485Z,4.95
2022-11-28T03:46:57.077Z,10.40
2022-11-28T03:49:33.044Z,5.03
2022-11-28T03:52:04.322Z,5.22
2022-11-28T03:54:40.665Z,7.88
2022-11-28T03:57:19.389Z,5.45
2022-11-28T03:59:54.448Z,6.20
2022-11-28T04:02:27.123Z,9.80
2022-11-28T04:05:12.077Z,6.55
2022-11-28T04:08:29.011Z,5.32
2022-11-28T04:11:12.900Z,6.28
2022-11-28T04:13:45.688Z,7.70
2022-11-28T04:16:37.326Z,7.57
2022-11-28T04:19:12.897Z,6.07
2022-11-28T04:21:44.509Z,6.72
2022-11-28T04:24:17.317Z,11.48
2022-11-28T04:26:48.957Z,7.60
2022-11-28T04:29:20.790Z,8.67
2022-11-28T04:31:50.913Z,6.70
2022-11-28T04:34:20.404Z,9.45
2022-11-28T04:36:49.990Z,9.57
2022-11-28T04:39:21.319Z,9.00
2022-11-28T04:42:05.614Z,8.30
2022-11-28T04:44:47.567Z,7.32
2022-11-28T04:47:14.696Z,8.57
2022-11-28T04:49:41.811Z,7.53
2022-11-28T04:52:57.329Z,12.35
2022-11-28T04:55:30.123Z,6.47
2022-11-28T04:58:13.397Z,7.88
2022-11-28T05:00:41.251Z,8.27
2022-11-28T05:03:09.815Z,5.63
2022-11-28T05:05:51.073Z,8.20
2022-11-28T05:08:20.322Z,5.90
2022-11-28T05:10:47.804Z,5.50
2022-11-28T05:13:15.124Z,5.78
2022-11-28T05:15:42.043Z,4.93
2022-11-28T05:18:09.478Z,8.50
2022-11-28T05:20:38.291Z,7.37
2022-11-28T05:23:05.328Z,14.23
2022-11-28T05:25:32.273Z,7.53
2022-11-28T05:27:59.069Z,7.05
2022-11-28T05:30:25.912Z,7.28
2022-11-28T05:32:52.783Z,7.17
2022-11-28T05:35:19.627Z,5.72
2022-11-28T05:37:46.456Z,6.88
2022-11-28T05:40:13.381Z,6.15
2022-11-28T05:42:40.169Z,8.57
2022-11-28T05:45:07.587Z,7.27
2022-11-28T05:47:34.614Z,7.22
2022-11-28T05:50:01.405Z,6.97
2022-11-28T05:52:32.548Z,6.35
2022-11-28T05:55:00.431Z,6.05
2022-11-28T05:57:30.071Z,7.27
2022-11-28T05:59:57.539Z,6.35
2022-11-28T06:02:25.393Z,5.78
2022-11-28T06:04:52.275Z,6.88
2022-11-28T06:07:20.070Z,8.02
2022-11-28T06:09:47.202Z,5.93
2022-11-28T06:12:14.016Z,6.13
2022-11-28T06:14:40.837Z,7.03
2022-11-28T06:17:07.740Z,5.90
2022-11-28T06:19:34.640Z,7.18
2022-11-28T06:22:01.457Z,7.73
2022-11-28T06:24:28.409Z,9.77
2022-11-28T06:26:55.437Z,6.05
2022-11-28T06:29:22.571Z,7.57
2022-11-28T06:31:49.283Z,6.45
2022-11-28T06:34:16.581Z,7.20
2022-11-28T06:36:45.353Z,6.30
2022-11-28T06:39:15.409Z,6.72
2022-11-28T06:41:43.115Z,6.07
2022-11-28T06:44:15.201Z,6.28
2022-11-28T06:46:43.049Z,5.67
2022-11-28T06:49:13.690Z,5.07
2022-11-28T06:51:41.734Z,7.10
2022-11-28T06:54:09.470Z,6.85
2022-11-28T06:56:36.496Z,6.28
2022-11-28T06:59:03.313Z,9.90
2022-11-28T07:01:31.524Z,6.60
2022-11-28T07:03:58.477Z,5.63
2022-11-28T07:06:26.886Z,7.45
2022-11-28T07:08:53.925Z,9.18
2022-11-28T07:11:27.772Z,6.73
2022-11-28T07:13:55.719Z,6.30
2022-11-28T07:16:25.096Z,6.60
2022-11-28T07:18:53.051Z,9.52
2022-11-28T07:21:20.458Z,5.70
2022-11-28T07:23:47.963Z,9.03
2022-11-28T07:26:16.998Z,9.60
2022-11-28T07:28:45.205Z,8.07
2022-11-28T07:31:14.777Z,8.60
2022-11-28T07:33:44.023Z,9.23
2022-11-28T07:36:16.946Z,6.87
2022-11-28T07:38:47.719Z,7.20
2022-11-28T07:41:15.328Z,11.07
2022-11-28T07:43:43.535Z,8.40
2022-11-28T07:46:13.641Z,7.32
2022-11-28T07:48:40.499Z,9.23
2022-11-28T07:51:09.477Z,9.30
2022-11-28T07:53:36.988Z,7.80
2022-11-28T07:56:08.894Z,7.20
2022-11-28T07:58:36.446Z,9.43
2022-11-28T08:01:11.349Z,9.07
2022-11-28T08:03:38.527Z,11.88
2022-11-28T08:06:05.898Z,13.23
2022-11-28T08:08:33.020Z,12.38
2022-11-28T08:11:03.077Z,11.20
2022-11-28T08:13:30.173Z,11.93
2022-11-28T08:15:57.288Z,12.43
2022-11-28T08:18:24.125Z,13.50
2022-11-28T08:20:54.203Z,10.85
2022-11-28T08:23:21.175Z,14.27
2022-11-28T08:25:47.958Z,12.50
2022-11-28T08:28:14.753Z,9.38
2022-11-28T08:30:44.096Z,13.48
2022-11-28T08:33:11.427Z,11.63
2022-11-28T08:35:40.445Z,11.68
2022-11-28T08:38:07.292Z,11.27
2022-11-28T08:40:34.118Z,12.55
2022-11-28T08:43:01.048Z,15.20
2022-11-28T08:45:27.805Z,10.77
2022-11-28T08:47:54.667Z,11.65
2022-11-28T08:50:21.544Z,10.80
2022-11-28T08:52:48.553Z,13.77
2022-11-28T08:55:15.522Z,13.63
2022-11-28T08:57:42.279Z,12.32
2022-11-28T09:00:10.198Z,12.75
2022-11-28T09:02:37.037Z,16.27
2022-11-28T09:05:04.137Z,11.18
2022-11-28T09:07:31.209Z,10.02
2022-11-28T09:09:58.157Z,10.85
2022-11-28T09:12:25.152Z,10.25
2022-11-28T09:14:52.103Z,8.53
2022-11-28T09:17:19.051Z,8.02
2022-11-28T09:19:46.052Z,11.10
2022-11-28T09:22:12.960Z,14.88
2022-11-28T09:24:40.286Z,12.25
2022-11-28T09:27:07.182Z,9.73
2022-11-28T09:29:34.097Z,9.45
2022-11-28T09:32:00.934Z,10.52
2022-11-28T09:34:28.041Z,11.02
2022-11-28T09:36:54.896Z,14.25
2022-11-28T09:39:21.705Z,10.37
2022-11-28T09:42:08.692Z,12.88
2022-11-28T09:44:43.529Z,10.98
2022-11-28T09:47:35.134Z,14.48
2022-11-28T09:50:10.760Z,12.32
2022-11-28T09:52:49.452Z,17.00
2022-11-28T09:55:24.976Z,15.77
2022-11-28T09:57:53.561Z,19.88
2022-11-28T10:00:35.126Z,17.65
2022-11-28T10:03:35.257Z,20.10
2022-11-28T10:06:16.187Z,20.43
2022-11-28T10:09:04.842Z,26.30
2022-11-28T10:11:55.881Z,22.35
2022-11-28T10:14:31.782Z,22.83
2022-11-28T10:17:34.535Z,26.73
2022-11-28T10:20:23.259Z,23.97
2022-11-28T10:22:59.436Z,30.48
2022-11-28T10:25:34.277Z,39.08
2022-11-28T10:28:04.091Z,41.13
2022-11-28T10:30:37.748Z,30.55
2022-11-28T10:33:17.152Z,38.10
2022-11-28T10:35:51.397Z,36.63
2022-11-28T10:38:21.124Z,40.70
2022-11-28T10:41:11.093Z,34.85
2022-11-28T10:44:05.406Z,30.20
2022-11-28T10:46:45.889Z,39.83
2022-11-28T10:49:24.918Z,37.47
2022-11-28T10:51:58.236Z,42.47
2022-11-28T10:54:34.101Z,47.83
2022-11-28T10:57:15.701Z,42.05
2022-11-28T11:00:09.893Z,42.77
2022-11-28T11:02:38.778Z,43.05
2022-11-28T11:05:06.872Z,43.60
2022-11-28T11:07:34.691Z,49.83
2022-11-28T11:10:23.743Z,51.97
2022-11-28T11:12:55.294Z,40.97
2022-11-28T11:15:32.492Z,45.42
2022-11-28T11:18:05.651Z,49.08
2022-11-28T11:20:36.149Z,51.10
2022-11-28T11:23:15.686Z,49.15
2022-11-28T11:25:51.457Z,50.73
2022-11-28T11:28:44.329Z,43.05
2022-11-28T11:31:44.864Z,47.90
2022-11-28T11:34:18.235Z,38.38
2022-11-28T11:36:45.508Z,36.40
2022-11-28T11:39:12.665Z,41.53
2022-11-28T11:41:44.956Z,39.70
2022-11-28T11:44:14.771Z,33.15
2022-11-28T11:46:51.522Z,40.88
2022-11-28T11:49:33.879Z,36.30
2022-11-28T11:52:04.458Z,32.93
2022-11-28T11:54:31.802Z,39.25
2022-11-28T11:57:24.982Z,37.50
2022-11-28T11:59:52.821Z,33.97
2022-11-28T12:02:49.607Z,32.88
2022-11-28T12:05:18.487Z,28.63
2022-11-28T12:07:51.321Z,36.33
2022-11-28T12:10:22.500Z,41.30
2022-11-28T12:12:49.395Z,36.05
2022-11-28T12:15:25.712Z,27.08
2022-11-28T12:17:59.161Z,34.23
2022-11-28T12:20:41.236Z,27.58
2022-11-28T12:23:32.708Z,28.02
2022-11-28T12:26:10.279Z,27.75
2022-11-28T12:29:01.417Z,33.13
2022-11-28T12:31:48.526Z,28.17
2022-11-28T12:34:34.544Z,24.67
2022-11-28T12:37:13.452Z,30.90
2022-11-28T12:39:46.495Z,26.52
2022-11-28T12:42:13.610Z,25.10
2022-11-28T12:45:16.199Z,28.47
2022-11-28T12:48:03.574Z,28.85
2022-11-28T12:50:35.869Z,32.95
2022-11-28T12:56:17.446Z,28.45
2022-11-28T12:58:54.513Z,30.13
2022-11-28T13:01:48.512Z,23.48
2022-11-28T13:08:08.451Z,26.27
2022-11-28T13:13:52.906Z,29.40
2022-11-28T13:16:31.949Z,28.25
2022-11-28T13:19:11.556Z,28.77
2022-11-28T13:22:04.395Z,31.00
2022-11-28T13:25:02.644Z,27.67
2022-11-28T13:27:41.580Z,28.10
2022-11-28T13:30:22.621Z,26.98
2022-11-28T13:33:10.999Z,27.60
2022-11-28T13:35:41.950Z,31.05
2022-11-28T13:38:39.273Z,27.08
2022-11-28T13:46:51.592Z,26.05
2022-11-28T13:49:30.603Z,33.65
2022-11-28T13:52:19.232Z,27.08
2022-11-28T13:54:54.006Z,29.17
2022-11-28T13:57:39.910Z,31.98
2022-11-28T14:00:27.930Z,32.80
2022-11-28T14:03:00.089Z,31.00
2022-11-28T14:05:37.275Z,28.58
2022-11-28T14:08:05.942Z,31.57
2022-11-28T14:11:01.999Z,40.00
2022-11-28T14:14:01.237Z,30.38
2022-11-28T14:16:54.169Z,32.20
2022-11-28T14:19:39.280Z,30.30
2022-11-28T14:22:06.054Z,27.90
2022-11-28T14:24:45.180Z,39.10
2022-11-28T14:27:20.120Z,30.65
2022-11-28T14:29:51.219Z,26.02
2022-11-28T14:32:41.069Z,37.22
2022-11-28T14:35:50.947Z,26.70
2022-11-28T14:38:35.740Z,27.27
2022-11-28T14:41:06.475Z,32.75
2022-11-28T14:43:37.892Z,30.10
2022-11-28T14:46:26.183Z,33.78
2022-11-28T14:48:59.350Z,36.83
2022-11-28T14:51:44.501Z,28.55
2022-11-28T14:54:42.291Z,34.42
2022-11-28T14:57:20.655Z,25.70
2022-11-28T14:59:48.579Z,40.58
2022-11-28T15:02:36.700Z,29.03
2022-11-28T15:05:23.065Z,30.95
2022-11-28T15:08:16.185Z,30.67
2022-11-28T15:11:01.295Z,27.48
2022-11-28T15:13:49.906Z,26.85
2022-11-28T15:16:20.133Z,26.93
2022-11-28T15:18:54.086Z,30.20
2022-11-28T15:21:22.783Z,25.60
2022-11-28T15:23:50.310Z,28.27
2022-11-28T15:26:21.855Z,31.77
2022-11-28T15:28:48.838Z,31.93
2022-11-28T15:31:25.180Z,29.90
2022-11-28T15:33:52.089Z,31.80
2022-11-28T15:36:28.205Z,28.02
2022-11-28T15:38:56.401Z,32.90
2022-11-28T15:41:25.538Z,28.23
2022-11-28T15:43:54.500Z,36.28
2022-11-28T15:46:31.782Z,26.33
2022-11-28T15:48:58.887Z,33.28
2022-11-28T15:51:34.260Z,33.20
2022-11-28T15:54:05.406Z,25.00
2022-11-28T15:56:34.911Z,28.45
2022-11-28T15:59:02.001Z,31.02
2022-11-28T16:01:31.071Z,29.08
2022-11-28T16:04:13.651Z,38.65
2022-11-28T16:06:43.190Z,31.37
2022-11-28T16:09:35.155Z,28.73
2022-11-28T16:12:04.707Z,29.17
2022-11-28T16:14:34.855Z,28.33
2022-11-28T16:17:07.504Z,25.48
2022-11-28T16:19:38.101Z,29.93
2022-11-28T16:22:09.125Z,29.60
2022-11-28T16:24:48.553Z,28.00
2022-11-28T16:27:34.928Z,25.40
2022-11-28T16:30:23.426Z,35.10
2022-11-28T16:32:52.120Z,25.83
2022-11-28T16:35:41.793Z,29.95
2022-11-28T16:38:16.697Z,32.70
2022-11-28T16:40:44.078Z,27.25
2022-11-28T16:43:32.720Z,33.80
2022-11-28T16:46:02.753Z,29.30
2022-11-28T16:48:34.311Z,27.85
2022-11-28T16:51:13.399Z,29.35
2022-11-28T16:53:44.812Z,35.75
2022-11-28T16:56:29.790Z,30.70
2022-11-28T16:59:16.810Z,39.70
2022-11-28T17:01:49.556Z,31.08
2022-11-28T17:04:22.588Z,29.10
2022-11-28T17:06:50.435Z,25.45
2022-11-28T17:09:18.240Z,33.20
2022-11-28T17:12:08.715Z,40.83
2022-11-28T17:14:37.678Z,31.35
2022-11-28T17:17:12.215Z,40.60
2022-11-28T17:19:39.263Z,30.67
2022-11-28T17:22:07.716Z,30.70
2022-11-28T17:24:36.097Z,35.17
2022-11-28T17:27:04.014Z,38.78
2022-11-28T17:29:30.877Z,29.10
2022-11-28T17:31:59.071Z,29.65
2022-11-28T17:34:28.469Z,27.73
2022-11-28T17:36:55.368Z,29.63
2022-11-28T17:39:22.244Z,29.40
2022-11-28T17:41:51.885Z,32.97
2022-11-28T17:44:21.517Z,32.05
2022-11-28T17:46:50.535Z,33.47
2022-11-28T17:49:17.876Z,32.47
2022-11-28T17:51:44.832Z,25.58
2022-11-28T17:54:16.457Z,25.75
2022-11-28T17:56:44.612Z,26.35
2022-11-28T17:59:16.299Z,23.45
2022-11-28T18:01:44.242Z,26.50
2022-11-28T18:04:11.754Z,24.77
2022-11-28T18:06:39.033Z,39.67
2022-11-28T18:09:11.671Z,55.90
2022-11-28T18:11:39.446Z,108.53
2022-11-28T18:14:06.653Z,102.57
2022-11-28T18:16:35.741Z,33.53
2022-11-28T18:19:03.975Z,77.18
2022-11-28T18:21:31.199Z,19.15
2022-11-28T18:23:57.980Z,21.42
2022-11-28T18:26:26.338Z,26.17
2022-11-28T18:28:54.319Z,19.90
2022-11-28T18:31:23.564Z,22.77
2022-11-28T18:33:50.942Z,20.38
2022-11-28T18:36:23.587Z,26.85
2022-11-28T18:38:54.571Z,67.33
2022-11-28T18:41:21.514Z,96.50
2022-11-28T18:43:48.461Z,66.20
2022-11-28T18:46:21.112Z,24.88
2022-11-28T18:48:48.283Z,16.98
2022-11-28T18:51:17.945Z,20.27
2022-11-28T18:53:46.247Z,25.98
2022-11-28T18:56:14.264Z,51.97
2022-11-28T18:58:43.652Z,49.95
2022-11-28T19:01:16.761Z,41.78
2022-11-28T19:03:48.279Z,43.77
2022-11-28T19:06:15.505Z,55.25
2022-11-28T19:08:42.972Z,29.48
2022-11-28T19:11:13.472Z,22.27
2022-11-28T19:13:41.920Z,22.98
2022-11-28T19:16:18.387Z,23.50
2022-11-28T19:18:45.690Z,25.90
2022-11-28T19:21:15.337Z,36.85
2022-11-28T19:23:42.359Z,27.88
2022-11-28T19:26:12.282Z,23.13
2022-11-28T19:28:40.725Z,29.47
2022-11-28T19:31:12.933Z,29.38
2022-11-28T19:33:39.799Z,23.23
2022-11-28T19:36:08.653Z,21.52
2022-11-28T19:38:36.573Z,27.42
2022-11-28T19:41:15.112Z,35.87
2022-11-28T19:43:41.893Z,28.83
2022-11-28T19:46:09.684Z,23.75
2022-11-28T19:48:38.128Z,22.25
2022-11-28T19:51:06.050Z,25.67
2022-11-28T19:53:34.201Z,38.23
2022-11-28T19:56:06.226Z,36.80
2022-11-28T19:58:35.418Z,37.70
2022-11-28T20:01:16.751Z,36.67
2022-11-28T20:03:44.311Z,41.63
2022-11-28T20:06:14.524Z,43.33
2022-11-28T20:08:41.898Z,48.25
2022-11-28T20:11:11.334Z,44.97
2022-11-28T20:13:38.200Z,47.83
2022-11-28T20:16:07.407Z,56.72
2022-11-28T20:18:37.182Z,52.57
2022-11-28T20:21:08.497Z,54.28
2022-11-28T20:23:44.438Z,47.75
2022-11-28T20:26:13.241Z,66.68
2022-11-28T20:28:41.804Z,73.95
2022-11-28T20:31:27.443Z,53.97
2022-11-28T20:33:54.746Z,78.05
2022-11-28T20:36:23.502Z,98.57
2022-11-28T20:38:51.651Z,58.25
2022-11-28T20:41:20.421Z,60.13
2022-11-28T20:43:47.968Z,47.53
2022-11-28T20:46:16.367Z,50.17
2022-11-28T20:48:44.022Z,67.07
2022-11-28T20:51:13.732Z,77.85
2022-11-28T20:53:41.624Z,106.88
2022-11-28T20:56:12.411Z,111.60
2022-11-28T20:58:39.689Z,106.22
2022-11-28T21:01:07.042Z,53.10
2022-11-28T21:03:34.495Z,79.00
2022-11-28T21:06:01.775Z,78.70
2022-11-28T21:08:31.489Z,74.33
2022-11-28T21:10:58.209Z,63.70
2022-11-28T21:13:25.377Z,77.18
2022-11-28T21:15:53.603Z,80.03
2022-11-28T21:18:20.547Z,61.58
2022-11-28T21:20:47.413Z,43.67
2022-11-28T21:23:17.353Z,71.60
2022-11-28T21:25:45.830Z,50.35
2022-11-28T21:28:12.935Z,52.50
2022-11-28T21:30:42.717Z,63.60
2022-11-28T21:33:11.561Z,65.80
2022-11-28T21:35:39.411Z,90.10
2022-11-28T21:38:07.394Z,55.42
2022-11-28T21:40:34.288Z,59.58
2022-11-28T21:43:01.076Z,52.30
2022-11-28T21:45:27.948Z,50.73
2022-11-28T21:47:54.917Z,51.65
2022-11-28T21:50:21.665Z,73.13
2022-11-28T21:52:48.541Z,73.53
2022-11-28T21:55:15.506Z,57.22
2022-11-28T21:57:42.438Z,58.27
2022-11-28T22:00:25.654Z,48.17
2022-11-28T22:03:02.954Z,62.47
2022-11-28T22:05:32.988Z,60.55
2022-11-28T22:08:00.346Z,67.63
2022-11-28T22:10:27.472Z,57.93
2022-11-28T22:12:54.169Z,74.05
2022-11-28T22:15:21.066Z,65.47
2022-11-28T22:17:47.922Z,62.15
2022-11-28T22:20:14.741Z,94.97
2022-11-28T22:22:41.598Z,101.67
2022-11-28T22:25:08.530Z,53.55
2022-11-28T22:27:38.248Z,54.13
2022-11-28T22:30:07.483Z,86.40
2022-11-28T22:32:34.267Z,62.92
2022-11-28T22:35:02.813Z,65.13
2022-11-28T22:37:29.684Z,63.65
2022-11-28T22:39:56.462Z,77.72
2022-11-28T22:42:23.295Z,68.75
2022-11-28T22:44:50.131Z,69.75
2022-11-28T22:47:17.035Z,66.30
2022-11-28T22:49:43.931Z,61.30
2022-11-28T22:52:10.773Z,105.20
2022-11-28T22:54:37.574Z,85.05
2022-11-28T22:57:04.545Z,96.03
2022-11-28T22:59:33.879Z,91.73
2022-11-28T23:02:01.471Z,62.72
2022-11-28T23:04:28.398Z,80.50
2022-11-28T23:06:55.352Z,67.30
2022-11-28T23:09:22.455Z,84.20
2022-11-28T23:11:49.331Z,84.57
2022-11-28T23:14:16.109Z,78.13
2022-11-28T23:16:44.507Z,117.07
2022-11-28T23:19:15.671Z,104.88
2022-11-28T23:21:45.925Z,108.82
2022-11-28T23:24:18.896Z,136.70
2022-11-28T23:26:46.520Z,82.07
2022-11-28T23:29:14.220Z,96.25
2022-11-28T23:31:42.627Z,78.07
2022-11-28T23:34:10.676Z,120.18
2022-11-28T23:36:47.790Z,157.37
2022-11-28T23:39:20.223Z,71.15
2022-11-28T23:41:47.667Z,123.03
2022-11-28T23:44:16.008Z,141.18
2022-11-28T23:46:43.290Z,105.90
2022-11-28T23:49:10.969Z,80.37
2022-11-28T23:51:40.219Z,154.02
2022-11-28T23:54:08.077Z,114.20
2022-11-28T23:56:36.350Z,103.97
2022-11-28T23:59:06.543Z,183.88
